createdAt,value
2023-01-05T00:01:23.833Z,27.33
2023-01-05T00:03:50.639Z,31.23
2023-01-05T00:06:18.654Z,27.63
2023-01-05T00:08:46.162Z,28.67
2023-01-05T00:11:42.960Z,29.90
2023-01-05T00:14:35.609Z,29.80
2023-01-05T00:17:21.877Z,25.77
2023-01-05T00:20:08.774Z,25.60
2023-01-05T00:22:50.270Z,24.52
2023-01-05T00:25:24.540Z,25.63
2023-01-05T00:27:53.827Z,24.58
2023-01-05T00:30:26.359Z,24.88
2023-01-05T00:32:53.297Z,22.08
2023-01-05T00:35:21.039Z,21.08
2023-01-05T00:37:47.910Z,18.88
2023-01-05T00:40:17.255Z,23.42
2023-01-05T00:42:44.370Z,21.52
2023-01-05T00:45:13.299Z,27.02
2023-01-05T00:47:40.498Z,22.17
2023-01-05T00:50:08.731Z,25.13
2023-01-05T00:52:35.731Z,23.60
2023-01-05T00:55:02.397Z,22.80
2023-01-05T00:57:28.964Z,22.38
2023-01-05T00:59:55.601Z,24.45
2023-01-05T01:02:22.319Z,26.25
2023-01-05T01:04:49.220Z,24.98
2023-01-05T01:07:15.865Z,23.98
2023-01-05T01:09:42.626Z,24.55
2023-01-05T01:12:09.347Z,23.13
2023-01-05T01:14:36.312Z,24.25
2023-01-05T01:17:02.946Z,23.33
2023-01-05T01:19:29.773Z,23.23
2023-01-05T01:21:56.391Z,23.05
2023-01-05T01:24:27.619Z,21.02
2023-01-05T01:26:55.857Z,21.23
2023-01-05T01:29:23.842Z,23.02
2023-01-05T01:31:52.626Z,22.42
2023-01-05T01:34:19.822Z,21.65
2023-01-05T01:36:47.112Z,23.45
2023-01-05T01:39:15.037Z,23.38
2023-01-05T01:41:41.880Z,21.75
2023-01-05T01:44:45.798Z,22.38
2023-01-05T01:47:19.361Z,37.50
2023-01-05T01:49:46.134Z,21.55
2023-01-05T01:52:12.797Z,23.58
2023-01-05T01:54:39.643Z,23.35
2023-01-05T01:57:10.732Z,27.65
2023-01-05T01:59:37.762Z,23.30
2023-01-05T02:02:06.947Z,21.60
2023-01-05T02:04:34.558Z,22.85
2023-01-05T02:07:03.060Z,23.52
2023-01-05T02:09:29.999Z,23.92
2023-01-05T02:12:02.756Z,22.77
2023-01-05T02:14:35.261Z,26.35
2023-01-05T02:17:20.744Z,25.40
2023-01-05T02:19:59.499Z,23.88
2023-01-05T02:22:44.384Z,24.42
2023-01-05T02:25:29.860Z,27.60
2023-01-05T02:28:29.186Z,24.40
2023-01-05T02:31:14.227Z,25.73
2023-01-05T02:33:55.096Z,24.52
2023-01-05T02:36:33.744Z,26.00
2023-01-05T02:39:10.423Z,27.95
2023-01-05T02:42:01.849Z,23.90
2023-01-05T02:44:30.862Z,23.25
2023-01-05T02:47:05.066Z,20.27
2023-01-05T02:49:36.792Z,23.67
2023-01-05T02:52:06.334Z,20.20
2023-01-05T02:54:48.787Z,23.40
2023-01-05T02:57:42.694Z,21.73
2023-01-05T03:00:11.738Z,21.73
2023-01-05T03:02:41.263Z,21.58
2023-01-05T03:05:16.899Z,22.35
2023-01-05T03:07:45.944Z,20.52
2023-01-05T03:10:34.261Z,18.95
2023-01-05T03:13:25.280Z,22.95
2023-01-05T03:16:01.958Z,22.25
2023-01-05T03:18:30.930Z,19.05
2023-01-05T03:20:58.120Z,18.90
2023-01-05T03:23:43.923Z,25.58
2023-01-05T03:26:31.433Z,21.52
2023-01-05T03:29:21.423Z,22.38
2023-01-05T03:32:14.533Z,21.33
2023-01-05T03:35:17.766Z,23.55
2023-01-05T03:37:47.900Z,26.45
2023-01-05T03:40:25.562Z,25.05
2023-01-05T03:42:52.323Z,23.35
2023-01-05T03:45:20.605Z,21.15
2023-01-05T03:47:47.315Z,23.30
2023-01-05T03:50:13.934Z,24.77
2023-01-05T03:52:40.991Z,23.67
2023-01-05T03:55:08.378Z,24.38
2023-01-05T03:57:35.098Z,23.25
2023-01-05T04:00:01.946Z,25.85
2023-01-05T04:02:29.156Z,24.80
2023-01-05T04:04:56.297Z,21.75
2023-01-05T04:07:23.429Z,22.73
2023-01-05T04:09:50.023Z,22.65
2023-01-05T04:12:16.730Z,25.88
2023-01-05T04:14:43.484Z,26.20
2023-01-05T04:17:10.173Z,25.10
2023-01-05T04:19:36.953Z,23.35
2023-01-05T04:22:03.617Z,23.02
2023-01-05T04:24:30.311Z,28.50
2023-01-05T04:26:56.963Z,24.15
2023-01-05T04:29:23.555Z,24.98
2023-01-05T04:31:50.232Z,24.33
2023-01-05T04:34:17.027Z,29.60
2023-01-05T04:36:43.725Z,26.38
2023-01-05T04:39:10.327Z,27.90
2023-01-05T04:41:36.943Z,30.65
2023-01-05T04:44:03.624Z,29.27
2023-01-05T04:46:30.778Z,31.95
2023-01-05T04:48:58.068Z,28.90
2023-01-05T04:51:25.057Z,32.38
2023-01-05T04:53:51.730Z,37.53
2023-01-05T04:56:18.785Z,37.47
2023-01-05T04:58:45.382Z,37.50
2023-01-05T05:01:12.137Z,36.28
2023-01-05T05:03:38.889Z,37.92
2023-01-05T05:06:06.006Z,34.25
2023-01-05T05:08:33.179Z,37.47
2023-01-05T05:10:59.926Z,34.83
2023-01-05T05:13:26.755Z,34.35
2023-01-05T05:15:53.554Z,34.55
2023-01-05T05:18:22.223Z,36.10
2023-01-05T05:20:51.732Z,34.75
2023-01-05T05:23:18.735Z,37.50
2023-01-05T05:25:45.790Z,34.85
2023-01-05T05:28:12.428Z,43.33
2023-01-05T05:30:38.967Z,37.97
2023-01-05T05:33:05.806Z,41.15
2023-01-05T05:35:32.778Z,41.97
2023-01-05T05:37:59.487Z,40.17
2023-01-05T05:40:26.579Z,44.03
2023-01-05T05:42:53.295Z,40.55
2023-01-05T05:45:19.847Z,48.25
2023-01-05T05:47:46.616Z,47.33
2023-01-05T05:50:13.580Z,45.72
2023-01-05T05:52:40.204Z,43.28
2023-01-05T05:55:07.638Z,46.22
2023-01-05T05:57:34.258Z,43.53
2023-01-05T06:00:00.848Z,58.92
2023-01-05T06:02:27.810Z,44.78
2023-01-05T06:04:54.651Z,47.47
2023-01-05T06:07:21.458Z,47.50
2023-01-05T06:09:48.031Z,53.08
2023-01-05T06:12:15.131Z,50.92
2023-01-05T06:14:41.823Z,52.38
2023-01-05T06:17:08.543Z,55.58
2023-01-05T06:19:35.258Z,50.70
2023-01-05T06:22:01.995Z,65.80
2023-01-05T06:24:28.771Z,62.22
2023-01-05T06:26:55.384Z,57.65
2023-01-05T06:29:22.064Z,53.10
2023-01-05T06:31:48.833Z,52.55
2023-01-05T06:34:15.472Z,53.70
2023-01-05T06:36:42.047Z,40.42
2023-01-05T06:39:08.638Z,45.85
2023-01-05T06:41:38.093Z,52.13
2023-01-05T06:44:05.776Z,45.65
2023-01-05T06:46:32.813Z,35.88
2023-01-05T06:48:59.713Z,35.45
2023-01-05T06:51:26.316Z,36.03
2023-01-05T06:53:52.990Z,40.25
2023-01-05T06:56:19.670Z,32.20
2023-01-05T06:58:46.235Z,33.30
2023-01-05T07:01:13.128Z,29.45
2023-01-05T07:03:39.804Z,35.20
2023-01-05T07:06:11.387Z,52.85
2023-01-05T07:08:41.811Z,46.20
2023-01-05T07:11:08.556Z,37.78
2023-01-05T07:13:35.261Z,39.08
2023-01-05T07:16:02.110Z,42.67
2023-01-05T07:18:28.729Z,38.08
2023-01-05T07:20:55.375Z,50.55
2023-01-05T07:23:22.438Z,38.72
2023-01-05T07:25:49.067Z,35.50
2023-01-05T07:28:15.818Z,45.13
2023-01-05T07:30:42.489Z,52.85
2023-01-05T07:33:09.104Z,40.85
2023-01-05T07:35:35.868Z,43.28
2023-01-05T07:38:02.585Z,42.10
2023-01-05T07:40:30.240Z,48.20
2023-01-05T07:42:56.776Z,48.95
2023-01-05T07:45:23.523Z,38.28
2023-01-05T07:47:50.280Z,37.55
2023-01-05T07:50:16.884Z,30.63
2023-01-05T07:52:44.179Z,33.33
2023-01-05T07:55:10.962Z,33.25
2023-01-05T07:57:37.671Z,33.42
2023-01-05T08:00:05.981Z,31.10
2023-01-05T08:02:36.081Z,31.90
2023-01-05T08:05:03.351Z,34.88
2023-01-05T08:07:30.156Z,31.92
2023-01-05T08:10:15.779Z,29.33
2023-01-05T08:13:00.740Z,37.65
2023-01-05T08:15:27.319Z,29.83
2023-01-05T08:17:54.122Z,30.85
2023-01-05T08:20:21.373Z,36.25
2023-01-05T08:22:52.474Z,34.00
2023-01-05T08:25:20.236Z,25.92
2023-01-05T08:27:47.634Z,25.90
2023-01-05T08:30:15.022Z,24.55
2023-01-05T08:32:42.315Z,26.20
2023-01-05T08:35:09.564Z,35.00
2023-01-05T08:37:36.198Z,27.63
2023-01-05T08:40:03.893Z,28.15
2023-01-05T08:42:30.715Z,32.50
2023-01-05T08:44:57.656Z,34.80
2023-01-05T08:47:28.188Z,27.85
2023-01-05T08:49:55.578Z,41.63
2023-01-05T08:52:23.674Z,40.90
2023-01-05T08:54:50.494Z,37.00
2023-01-05T08:57:17.295Z,42.10
2023-01-05T08:59:43.983Z,46.80
2023-01-05T09:02:12.678Z,37.03
2023-01-05T09:04:40.621Z,30.67
2023-01-05T09:07:07.431Z,37.65
2023-01-05T09:09:34.215Z,31.73
2023-01-05T09:12:00.988Z,37.65
2023-01-05T09:14:27.885Z,37.10
2023-01-05T09:17:07.098Z,29.73
2023-01-05T09:19:34.355Z,27.33
2023-01-05T09:22:01.086Z,26.48
2023-01-05T09:24:27.768Z,28.75
2023-01-05T09:26:54.596Z,23.83
2023-01-05T09:29:21.492Z,24.50
2023-01-05T09:31:48.586Z,24.58
2023-01-05T09:34:16.884Z,25.05
2023-01-05T09:36:44.095Z,24.80
2023-01-05T09:39:11.135Z,23.70
2023-01-05T09:41:46.184Z,25.52
2023-01-05T09:44:34.166Z,23.90
2023-01-05T09:47:14.042Z,24.92
2023-01-05T09:49:42.084Z,28.10
2023-01-05T09:52:10.897Z,26.02
2023-01-05T09:54:39.995Z,24.17
2023-01-05T09:57:15.484Z,22.20
2023-01-05T09:59:46.440Z,25.55
2023-01-05T10:02:46.870Z,22.58
2023-01-05T10:05:15.227Z,29.35
2023-01-05T10:07:44.797Z,25.80
2023-01-05T10:10:31.007Z,23.90
2023-01-05T10:13:04.604Z,25.52
2023-01-05T10:15:39.280Z,26.10
2023-01-05T10:18:15.192Z,27.63
2023-01-05T10:20:54.144Z,23.80
2023-01-05T10:23:31.722Z,29.67
2023-01-05T10:26:08.573Z,28.65
2023-01-05T10:29:02.869Z,21.77
2023-01-05T10:31:46.071Z,27.80
2023-01-05T10:34:40.549Z,25.95
2023-01-05T10:37:24.658Z,27.35
2023-01-05T10:40:09.532Z,23.65
2023-01-05T10:42:48.415Z,21.27
2023-01-05T10:45:19.914Z,22.38
2023-01-05T10:47:48.416Z,22.75
2023-01-05T10:50:27.158Z,21.95
2023-01-05T10:52:54.764Z,18.35
2023-01-05T10:55:23.035Z,19.75
2023-01-05T10:57:49.976Z,23.58
2023-01-05T11:00:22.245Z,21.67
2023-01-05T11:02:58.240Z,20.40
2023-01-05T11:05:33.320Z,20.00
2023-01-05T11:08:04.064Z,22.80
2023-01-05T11:10:41.354Z,21.60
2023-01-05T11:13:22.966Z,22.88
2023-01-05T11:15:54.991Z,25.85
2023-01-05T11:18:52.553Z,30.33
2023-01-05T11:21:24.828Z,21.00
2023-01-05T11:23:56.594Z,18.33
2023-01-05T11:26:38.491Z,19.73
2023-01-05T11:29:08.383Z,18.33
2023-01-05T11:31:42.886Z,19.42
2023-01-05T11:34:31.045Z,20.48
2023-01-05T11:37:07.562Z,15.93
2023-01-05T11:39:41.190Z,21.63
2023-01-05T11:42:14.798Z,23.88
2023-01-05T11:44:49.020Z,29.88
2023-01-05T11:47:30.960Z,23.35
2023-01-05T11:50:07.028Z,26.80
2023-01-05T11:52:38.851Z,20.73
2023-01-05T11:55:20.586Z,22.20
2023-01-05T11:57:51.595Z,25.42
2023-01-05T12:00:27.303Z,32.22
2023-01-05T12:03:15.377Z,19.85
2023-01-05T12:05:51.669Z,24.08
2023-01-05T12:08:24.977Z,22.17
2023-01-05T12:11:17.487Z,21.33
2023-01-05T12:13:48.167Z,26.90
2023-01-05T12:16:33.177Z,12.65
2023-01-05T12:19:05.612Z,11.50
2023-01-05T12:21:38.894Z,8.30
2023-01-05T12:24:36.696Z,6.65
2023-01-05T12:27:22.004Z,4.85
2023-01-05T12:31:59.434Z,11.75
2023-01-05T12:36:45.097Z,4.07
2023-01-05T12:39:20.900Z,4.68
2023-01-05T12:42:01.311Z,5.10
2023-01-05T12:45:07.660Z,4.65
2023-01-05T12:48:03.584Z,3.08
2023-01-05T12:50:36.663Z,3.60
2023-01-05T12:53:22.455Z,9.82
2023-01-05T12:55:54.477Z,4.57
2023-01-05T12:58:31.592Z,6.57
2023-01-05T13:01:01.274Z,8.45
2023-01-05T13:03:40.039Z,3.95
2023-01-05T13:06:22.186Z,10.82
2023-01-05T13:08:56.625Z,5.40
2023-01-05T13:11:38.561Z,5.72
2023-01-05T13:14:18.019Z,4.75
2023-01-05T13:16:50.737Z,5.00
2023-01-05T13:19:38.483Z,6.50
2023-01-05T13:22:11.750Z,7.95
2023-01-05T13:25:13.887Z,11.60
2023-01-05T13:27:40.698Z,8.30
2023-01-05T13:30:11.873Z,6.82
2023-01-05T13:32:53.430Z,8.15
2023-01-05T13:35:49.914Z,7.93
2023-01-05T13:38:50.847Z,6.95
2023-01-05T13:41:58.359Z,6.70
2023-01-05T13:44:49.682Z,6.78
2023-01-05T13:47:23.782Z,4.88
2023-01-05T13:50:00.187Z,4.40
2023-01-05T13:52:42.724Z,10.18
2023-01-05T13:55:25.025Z,5.32
2023-01-05T13:57:55.745Z,9.30
2023-01-05T14:00:40.105Z,4.90
2023-01-05T14:03:28.532Z,8.13
2023-01-05T14:05:58.711Z,10.15
2023-01-05T14:08:32.639Z,6.90
2023-01-05T14:11:09.114Z,10.80
2023-01-05T14:13:45.022Z,15.65
2023-01-05T14:16:41.412Z,9.18
2023-01-05T14:19:20.511Z,9.35
2023-01-05T14:21:50.546Z,12.20
2023-01-05T14:27:10.572Z,8.68
2023-01-05T14:29:46.487Z,8.07
2023-01-05T14:32:14.396Z,8.48
2023-01-05T14:34:53.633Z,11.00
2023-01-05T14:37:37.632Z,10.70
2023-01-05T14:40:39.522Z,13.68
2023-01-05T14:43:21.627Z,15.77
2023-01-05T14:46:11.089Z,13.15
2023-01-05T14:49:07.010Z,7.60
2023-01-05T14:51:36.669Z,10.00
2023-01-05T14:54:06.083Z,12.10
2023-01-05T14:56:36.165Z,15.80
2023-01-05T14:59:12.341Z,14.30
2023-01-05T15:01:48.553Z,20.55
2023-01-05T15:04:21.409Z,27.08
2023-01-05T15:06:48.031Z,25.60
2023-01-05T15:09:32.912Z,25.33
2023-01-05T15:12:21.243Z,18.98
2023-01-05T15:15:06.159Z,25.10
2023-01-05T15:18:00.199Z,18.67
2023-01-05T15:20:35.289Z,20.55
2023-01-05T15:23:38.631Z,16.25
2023-01-05T15:26:27.286Z,24.42
2023-01-05T15:29:31.726Z,14.82
2023-01-05T15:32:06.118Z,17.00
2023-01-05T15:34:50.175Z,15.60
2023-01-05T15:37:38.783Z,18.40
2023-01-05T15:40:26.386Z,12.90
2023-01-05T15:42:56.573Z,13.80
2023-01-05T15:45:30.467Z,14.70
2023-01-05T15:48:00.960Z,13.63
2023-01-05T15:50:39.603Z,20.92
2023-01-05T15:53:06.552Z,26.30
2023-01-05T15:55:33.200Z,19.35
2023-01-05T15:58:03.914Z,17.30
2023-01-05T16:00:35.287Z,17.98
2023-01-05T16:03:18.234Z,17.23
2023-01-05T16:05:44.916Z,19.38
2023-01-05T16:08:16.938Z,18.90
2023-01-05T16:10:50.929Z,16.17
2023-01-05T16:13:29.299Z,18.60
2023-01-05T16:16:01.666Z,15.38
2023-01-05T16:18:39.502Z,17.20
2023-01-05T16:21:36.137Z,15.68
2023-01-05T16:24:32.123Z,18.67
2023-01-05T16:26:59.400Z,20.95
2023-01-05T16:29:44.627Z,31.70
2023-01-05T16:32:27.109Z,30.55
2023-01-05T16:35:23.219Z,22.60
2023-01-05T16:38:08.728Z,23.00
2023-01-05T16:40:39.062Z,23.60
2023-01-05T16:43:23.917Z,35.85
2023-01-05T16:45:51.762Z,27.92
2023-01-05T16:48:36.535Z,29.77
2023-01-05T16:51:08.547Z,29.40
2023-01-05T16:53:39.924Z,24.77
2023-01-05T16:56:22.512Z,23.38
2023-01-05T16:58:49.736Z,21.48
2023-01-05T17:01:40.334Z,24.10
2023-01-05T17:04:25.522Z,24.05
2023-01-05T17:06:53.509Z,28.42
2023-01-05T17:09:31.016Z,25.23
2023-01-05T17:11:58.139Z,26.83
2023-01-05T17:14:28.017Z,36.95
2023-01-05T17:16:54.836Z,41.13
2023-01-05T17:19:21.655Z,26.58
2023-01-05T17:21:56.227Z,31.83
2023-01-05T17:24:23.561Z,28.80
2023-01-05T17:26:50.715Z,31.45
2023-01-05T17:29:23.827Z,29.73
2023-01-05T17:31:51.180Z,31.70
2023-01-05T17:34:17.929Z,27.65
2023-01-05T17:36:46.311Z,25.38
2023-01-05T17:39:17.856Z,27.60
2023-01-05T17:41:44.962Z,29.40
2023-01-05T17:44:12.198Z,29.50
2023-01-05T17:46:42.906Z,28.58
2023-01-05T17:49:21.803Z,29.77
2023-01-05T17:51:48.435Z,27.45
2023-01-05T17:54:15.111Z,23.23
2023-01-05T17:56:41.856Z,22.23
2023-01-05T17:59:08.591Z,24.30
2023-01-05T18:01:35.161Z,27.23
2023-01-05T18:04:02.501Z,25.75
2023-01-05T18:06:29.410Z,26.33
2023-01-05T18:08:56.130Z,26.42
2023-01-05T18:11:23.036Z,26.98
2023-01-05T18:13:50.032Z,23.75
2023-01-05T18:16:16.833Z,22.98
2023-01-05T18:18:43.804Z,21.00
2023-01-05T18:21:10.657Z,23.50
2023-01-05T18:23:37.399Z,17.85
2023-01-05T18:26:06.313Z,24.50
2023-01-05T18:28:33.018Z,23.05
2023-01-05T18:31:01.191Z,22.38
2023-01-05T18:33:28.530Z,21.77
2023-01-05T18:35:58.493Z,18.85
2023-01-05T18:38:25.285Z,26.20
2023-01-05T18:40:52.018Z,25.67
2023-01-05T18:43:18.668Z,26.92
2023-01-05T18:45:45.454Z,28.10
2023-01-05T18:48:12.172Z,24.75
2023-01-05T18:50:43.229Z,29.40
2023-01-05T18:53:09.970Z,28.67
2023-01-05T18:55:40.636Z,31.15
2023-01-05T18:58:07.311Z,29.50
2023-01-05T19:00:34.141Z,33.28
2023-01-05T19:03:00.862Z,32.35
2023-01-05T19:05:27.525Z,27.88
2023-01-05T19:07:54.326Z,29.88
2023-01-05T19:10:21.904Z,26.92
2023-01-05T19:12:49.323Z,23.20
2023-01-05T19:15:16.405Z,22.38
2023-01-05T19:17:43.406Z,25.73
2023-01-05T19:20:10.395Z,29.90
2023-01-05T19:22:37.313Z,28.13
2023-01-05T19:25:05.569Z,27.00
2023-01-05T19:27:32.230Z,29.60
2023-01-05T19:29:59.771Z,25.35
2023-01-05T19:32:26.422Z,25.13
2023-01-05T19:34:52.994Z,21.88
2023-01-05T19:37:19.969Z,26.73
2023-01-05T19:39:46.626Z,26.60
2023-01-05T19:42:13.346Z,21.15
2023-01-05T19:44:39.981Z,22.60
2023-01-05T19:47:06.654Z,21.65
2023-01-05T19:49:34.431Z,24.15
2023-01-05T19:52:01.186Z,29.23
2023-01-05T19:54:28.757Z,22.10
2023-01-05T19:56:55.545Z,23.60
2023-01-05T19:59:26.352Z,25.85
2023-01-05T20:01:54.910Z,24.30
2023-01-05T20:04:21.729Z,18.42
2023-01-05T20:06:49.547Z,19.30
2023-01-05T20:09:19.541Z,16.38
2023-01-05T20:11:54.858Z,16.48
2023-01-05T20:14:30.998Z,17.85
2023-01-05T20:17:00.440Z,18.65
2023-01-05T20:19:29.134Z,13.35
2023-01-05T20:21:57.749Z,21.38
2023-01-05T20:24:26.875Z,14.10
2023-01-05T20:26:56.352Z,13.63
2023-01-05T20:29:27.933Z,18.85
2023-01-05T20:32:04.690Z,14.05
2023-01-05T20:34:35.651Z,16.52
2023-01-05T20:37:04.514Z,15.57
2023-01-05T20:39:31.891Z,15.27
2023-01-05T20:42:04.857Z,16.55
2023-01-05T20:44:34.959Z,14.63
2023-01-05T20:47:03.444Z,17.38
2023-01-05T20:49:30.691Z,15.38
2023-01-05T20:51:57.767Z,15.43
2023-01-05T20:54:25.135Z,14.10
2023-01-05T20:56:52.412Z,18.05
2023-01-05T20:59:23.138Z,16.05
2023-01-05T21:01:51.235Z,13.68
2023-01-05T21:04:18.864Z,12.98
2023-01-05T21:06:46.251Z,13.68
2023-01-05T21:09:14.106Z,26.45
2023-01-05T21:11:43.241Z,28.92
2023-01-05T21:14:12.792Z,25.67
2023-01-05T21:16:43.381Z,26.55
2023-01-05T21:19:18.960Z,27.92
2023-01-05T21:21:47.510Z,26.48
2023-01-05T21:24:15.512Z,25.10
2023-01-05T21:26:43.044Z,25.35
2023-01-05T21:29:12.096Z,23.00
2023-01-05T21:31:38.843Z,23.33
2023-01-05T21:34:06.056Z,20.88
2023-01-05T21:36:34.375Z,23.35
2023-01-05T21:39:04.072Z,22.58
2023-01-05T21:41:53.232Z,19.00
2023-01-05T21:44:20.943Z,19.38
2023-01-05T21:46:48.881Z,16.13
2023-01-05T21:49:16.949Z,20.42
2023-01-05T21:52:02.639Z,16.65
2023-01-05T21:54:48.661Z,16.55
2023-01-05T21:57:15.622Z,17.25
2023-01-05T21:59:43.504Z,15.25
2023-01-05T22:02:11.308Z,13.95
2023-01-05T22:04:38.051Z,15.15
2023-01-05T22:07:07.671Z,17.00
2023-01-05T22:09:35.734Z,16.50
2023-01-05T22:12:04.003Z,13.55
2023-01-05T22:14:30.635Z,12.75
2023-01-05T22:16:57.222Z,18.75
2023-01-05T22:19:23.965Z,15.02
2023-01-05T22:21:51.072Z,12.30
2023-01-05T22:24:17.961Z,10.48
2023-01-05T22:26:45.107Z,11.85
2023-01-05T22:29:11.882Z,8.18
2023-01-05T22:31:38.842Z,9.13
2023-01-05T22:34:05.595Z,7.70
2023-01-05T22:36:32.526Z,12.40
2023-01-05T22:39:00.683Z,8.75
2023-01-05T22:41:30.899Z,10.07
2023-01-05T22:43:58.209Z,6.47
2023-01-05T22:46:29.603Z,9.82
2023-01-05T22:48:58.069Z,7.28
2023-01-05T22:51:30.054Z,9.40
2023-01-05T22:53:58.364Z,7.32
2023-01-05T22:56:26.812Z,6.32
2023-01-05T22:58:55.417Z,11.60
2023-01-05T23:01:28.017Z,6.82
2023-01-05T23:03:57.427Z,7.00
2023-01-05T23:06:24.770Z,6.32
2023-01-05T23:08:52.930Z,6.65
2023-01-05T23:11:22.751Z,6.65
2023-01-05T23:13:51.083Z,8.95
2023-01-05T23:16:18.108Z,6.82
2023-01-05T23:18:45.427Z,6.25
2023-01-05T23:21:14.058Z,6.85
2023-01-05T23:23:41.666Z,5.07
2023-01-05T23:26:10.044Z,7.05
2023-01-05T23:28:37.148Z,7.22
2023-01-05T23:31:04.932Z,8.23
2023-01-05T23:33:36.238Z,7.07
2023-01-05T23:36:03.981Z,5.60
2023-01-05T23:38:31.678Z,7.57
2023-01-05T23:40:59.440Z,5.07
2023-01-05T23:43:28.779Z,4.65
2023-01-05T23:46:04.493Z,4.78
2023-01-05T23:48:32.138Z,6.03
2023-01-05T23:50:58.845Z,5.40
2023-01-05T23:53:25.848Z,5.22
2023-01-05T23:56:04.098Z,6.32
2023-01-05T23:58:31.067Z,6.30
